• Join FlightAware (Why Join?)
  • Login
  • US Flag 
02:54PM EST


 

Airport Tracker/Info


-or-


 

Live Flight TrackerFlight Track Log ✈ EJA396 ✈ 03-May-2014 ✈ KDEN - KGCN

Flight Track Log - Related Links

Times and Time Zones

All times are in EDT time to prevent confusion due to time zone crossing. See the EJA396 flight status page for this flight to view local times or setup timezone preferences in your user account.

Time Position Orientation Groundspeed Altitude Reporting Facility
EDT Latitude Longitude Course Direction KTS MPH feet Rate Location/Type
12:12PM 39.8408 -104.7375 254° West 164 189 7,500  Level Denver Center
12:13PM 39.8208 -104.8294 254° West 253 291 10,100 1,258 Climbing Denver Center
12:14PM 39.7936 -104.9275 250° West 284 327 10,100 1,171 Level Denver Center
12:15PM 39.7661 -105.0261 250° West 290 334 12,500 2,732 Climbing Denver Center
12:16PM 39.7219 -105.1511 245° Southwest 349 402 15,700 2,912 Climbing Denver Center
12:18PM 39.6794 -105.2692 245° Southwest 360 414 19,100 3,353 Climbing Denver Center
12:19PM 39.6281 -105.4158 246° West 356 410 23,300 3,290 Climbing Denver Center
12:20PM 39.5850 -105.5336 245° Southwest 360 414 25,900 2,226 Climbing Denver Center
12:21PM 39.5417 -105.6594 246° West 379 436 27,900 1,984 Climbing Denver Center
12:22PM 39.5050 -105.7953 251° West 397 457 30,000 1,935 Climbing Denver Center
12:23PM 39.4658 -105.9325 250° West 401 461 31,900 968 Climbing Denver Center
12:24PM 39.4178 -106.1075 250° West 429 494 32,000 49 Climbing Denver Center
12:25PM 39.3847 -106.2225 250° West 432 497 32,000  Level Denver Center
12:26PM 39.3328 -106.4094 250° West 432 497 32,000 240 Level Denver Center
12:27PM 39.2906 -106.5500 249° West 435 501 32,500 677 Climbing Denver Center
12:28PM 39.2500 -106.6889 249° West 435 501 33,400 726 Climbing Denver Center
12:29PM 39.1728 -106.8283 234° Southwest 428 493 34,000 290 Climbing Denver Center
12:30PM 39.0986 -106.9428 230° Southwest 430 495 34,000  Level Denver Center
12:31PM 39.0250 -107.0572 230° Southwest 430 495 34,000  Level Denver Center
12:32PM 38.9469 -107.1961 234° Southwest 430 495 34,000  Level Denver Center
12:33PM 38.8703 -107.3350 235° Southwest 427 491 34,000  Level Denver Center
12:34PM 38.8053 -107.4508 234° Southwest 420 483 34,000  Level Denver Center
12:35PM 38.7250 -107.5925 234° Southwest 435 501 34,000  Level Denver Center
12:36PM 38.6683 -107.6911 234° Southwest 435 501 34,000  Level Denver Center
12:37PM 38.5778 -107.8517 234° Southwest 435 501 34,000  Level Denver Center
12:38PM 38.5106 -107.9681 234° Southwest 427 491 34,000  Level Denver Center
12:39PM 38.4439 -108.0856 234° Southwest 425 489 34,000  Level Denver Center
12:40PM 38.3650 -108.2214 233° Southwest 425 489 34,000  Level Denver Center
12:41PM 38.2975 -108.3375 233° Southwest 425 489 34,000  Level Denver Center
12:43PM 38.2183 -108.4750 234° Southwest 427 491 34,000  Level Denver Center
12:44PM 38.1500 -108.5917 233° Southwest 428 493 34,000 -480 Level Denver Center
12:45PM 38.0700 -108.7283 233° Southwest 428 493 33,000 -968 Descending Denver Center
12:46PM 38.0006 -108.8450 233° Southwest 429 494 32,000 -484 Descending Denver Center
12:47PM 37.9206 -108.9781 233° Southwest 425 489 32,000  Level Denver Center
12:48PM 37.8489 -109.1006 233° Southwest 446 513 32,000  Level Denver Center
12:49PM 37.7653 -109.2389 233° Southwest 448 516 32,000  Level Denver Center
12:50PM 37.6942 -109.3586 233° Southwest 447 514 32,000  Level Denver Center
12:51PM 37.6111 -109.4978 233° Southwest 447 514 32,000  Level Denver Center
12:52PM 37.5511 -109.5972 233° Southwest 447 514 32,000  Level Denver Center
12:53PM 37.4686 -109.7344 233° Southwest 446 513 32,000  Level Denver Center
12:54PM 37.3847 -109.8717 232° Southwest 445 512 32,000  Level Denver Center
12:55PM 37.3133 -109.9886 233° Southwest 444 511 32,000  Level Denver Center
12:56PM 37.2300 -110.1247 232° Southwest 441 507 32,000  Level Denver Center
12:57PM 37.1522 -110.2506 232° Southwest 441 507 32,000  Level Denver Center
12:58PM 37.0781 -110.3714 232° Southwest 441 507 32,000  Level Denver Center
12:59PM 37.0025 -110.4944 232° Southwest 442 509 32,000 -221 Level Denver Center
01:00PM 36.9267 -110.6156 232° Southwest 442 509 31,500 -1,015 Descending Denver Center
01:01PM 36.8392 -110.7567 232° Southwest 431 496 29,700 -1,984 Descending Denver Center
01:02PM 36.7547 -110.8933 232° Southwest 419 482 27,400 -2,419 Descending Denver Center
01:03PM 36.6847 -111.0069 232° Southwest 416 479 24,700 -3,048 Descending Denver Center
01:04PM 36.6128 -111.1167 231° Southwest 414 476 21,100 -3,312 Descending Denver Center
01:06PM 36.5503 -111.2167 232° Southwest 387 445 17,800 -2,516 Descending Denver Center
01:07PM 36.4925 -111.3100 232° Southwest 359 413 15,900 -844 Descending Denver Center
01:08PM 36.4328 -111.4033 232° Southwest 345 397 15,900  Level Denver Center
01:09PM 36.3439 -111.5431 232° Southwest 359 413 15,900 -221 Level Denver Center
01:10PM 36.2739 -111.6528 232° Southwest 335 386 15,400 -1,111 Descending Los Angeles Center
01:11PM 36.2256 -111.7289 232° Southwest 293 337 13,400 -1,935 Descending Los Angeles Center
01:12PM 36.1817 -111.7964 231° Southwest 275 316 11,400 -1,210 Descending Los Angeles Center
01:13PM 36.1364 -111.8361 215° Southwest 251 289 10,900 -242 Descending Los Angeles Center
01:14PM 36.0800 -111.8617 200° South 227 261 10,900  Level Los Angeles Center
01:15PM 36.0114 -111.8922 200° South 223 257 10,900  Level Los Angeles Center
01:16PM 35.9636 -111.9331 215° Southwest 227 261 10,900 -532 Level Los Angeles Center
01:17PM 35.9794 -112.0061 285° West 225 259 9,800 -677 Descending Los Angeles Center
01:18PM 36.0036 -112.0689 295° West 221 254 9,500 -290 Descending Los Angeles Center
01:20PM 35.9500 -112.1333 238° Southwest  Level FlightAware Approximate